Time;durP1;ratioP1;P1;durP2;ratioP2;P2;SDS_P1;SDS_P2;PMS_P1;PMS_P2;Temp;Humidity;BMP_temperature;BMP_pressure;BME280_temperature;BME280_humidity;BME280_pressure;Samples;Min_cycle;Max_cycle;Signal;HPM_P1;HPM_P2
2020/12/25 00:00:13;;;;;;;3.87;3.57;;;3.40;94.90;;;;;;5122438;27;21071;-76
2020/12/25 00:02:39;;;;;;;4.00;3.60;;;3.40;95.50;;;;;;5126954;27;20462;-76
2020/12/25 00:05:06;;;;;;;3.23;2.93;;;3.40;95.90;;;;;;5127456;27;20475;-75
2020/12/25 00:07:38;;;;;;;3.77;3.47;;;3.40;96.10;;;;;;5124677;27;20448;-76
2020/12/25 00:10:04;;;;;;;3.60;3.30;;;3.30;95.50;;;;;;5127656;27;21029;-76
2020/12/25 00:12:31;;;;;;;4.40;3.53;;;3.30;95.00;;;;;;5125362;27;21012;-75
2020/12/25 00:14:57;;;;;;;3.90;3.60;;;3.30;97.20;;;;;;5122518;27;21141;-75
2020/12/25 00:17:25;;;;;;;3.30;3.00;;;3.30;96.80;;;;;;5119810;27;21113;-76
2020/12/25 00:19:52;;;;;;;3.40;3.10;;;3.40;95.60;;;;;;5125237;27;20444;-76
2020/12/25 00:22:30;;;;;;;4.63;2.90;;;3.30;94.60;;;;;;5125669;27;20961;-76
2020/12/25 00:24:56;;;;;;;3.10;2.90;;;3.30;94.30;;;;;;5131151;27;20531;-76
2020/12/25 00:27:22;;;;;;;3.33;3.03;;;3.30;94.50;;;;;;5126397;27;20485;-75
2020/12/25 00:29:49;;;;;;;3.27;2.97;;;3.20;94.70;;;;;;5130077;27;22500;-75
2020/12/25 00:32:27;;;;;;;3.30;2.90;;;3.30;93.10;;;;;;5126309;27;20464;-75
2020/12/25 00:34:54;;;;;;;3.67;3.37;;;3.30;94.10;;;;;;5129340;27;20997;-74
2020/12/25 00:37:26;;;;;;;3.43;3.13;;;3.30;94.20;;;;;;5123491;27;21079;-75
2020/12/25 00:39:53;;;;;;;4.27;2.90;;;3.30;94.20;;;;;;5133460;27;20475;-76
2020/12/25 00:42:19;;;;;;;3.40;3.10;;;3.30;94.00;;;;;;5129224;27;20491;-75
2020/12/25 00:44:46;;;;;;;3.50;3.20;;;3.20;94.50;;;;;;5126225;27;20788;-75
2020/12/25 00:47:12;;;;;;;3.80;3.27;;;3.20;94.60;;;;;;5125624;27;20460;-76
2020/12/25 00:49:38;;;;;;;4.03;3.70;;;3.20;95.60;;;;;;5130653;27;20452;-76
2020/12/25 00:52:05;;;;;;;4.00;3.57;;;3.20;97.60;;;;;;5126951;27;20576;-76
2020/12/25 00:54:32;;;;;;;4.40;4.00;;;3.20;98.00;;;;;;5129678;27;20451;-75
2020/12/25 00:57:01;;;;;;;3.87;3.50;;;3.20;97.40;;;;;;5129372;27;20508;-76
2020/12/25 00:59:27;;;;;;;4.37;3.40;;;3.20;99.90;;;;;;5128442;27;20460;-76
2020/12/25 01:01:54;;;;;;;3.97;3.67;;;3.20;99.90;;;;;;5129834;27;20540;-76
2020/12/25 01:04:21;;;;;;;5.10;3.00;;;3.20;99.90;;;;;;5129166;27;22545;-75
2020/12/25 01:06:49;;;;;;;4.17;3.77;;;3.20;99.90;;;;;;5130312;27;20895;-75
2020/12/25 01:09:16;;;;;;;3.80;3.50;;;3.10;99.90;;;;;;5123799;27;20472;-76
2020/12/25 01:11:43;;;;;;;4.13;3.80;;;3.10;99.70;;;;;;5131929;27;20555;-75
2020/12/25 01:14:09;;;;;;;3.90;3.17;;;3.20;99.00;;;;;;5129798;27;20459;-76
2020/12/25 01:16:37;;;;;;;4.57;4.17;;;3.10;99.90;;;;;;5129976;27;20955;-74
2020/12/25 01:19:06;;;;;;;4.10;3.30;;;3.10;99.90;;;;;;5128471;27;20517;-76
2020/12/25 01:21:32;;;;;;;5.00;4.20;;;3.10;99.90;;;;;;5131464;27;20479;-75
2020/12/25 01:24:00;;;;;;;4.10;3.73;;;3.00;99.90;;;;;;5127361;27;20492;-75
2020/12/25 01:26:33;;;;;;;5.37;4.77;;;3.00;99.90;;;;;;5132501;27;20452;-75
2020/12/25 01:29:03;;;;;;;4.07;3.67;;;3.00;99.90;;;;;;5135171;27;20454;-75
2020/12/25 01:31:33;;;;;;;4.90;4.40;;;3.00;99.90;;;;;;5136758;27;20433;-75
2020/12/25 01:33:59;;;;;;;4.57;4.17;;;3.00;99.90;;;;;;5131441;27;20482;-74
2020/12/25 01:36:26;;;;;;;5.10;4.60;;;2.90;99.90;;;;;;5127652;27;20516;-75
2020/12/25 01:38:58;;;;;;;5.90;5.30;;;2.90;99.90;;;;;;5124784;27;20443;-76
2020/12/25 01:41:27;;;;;;;5.77;5.17;;;2.90;99.90;;;;;;5130078;27;20448;-74
2020/12/25 01:43:56;;;;;;;5.20;4.60;;;2.90;99.90;;;;;;5129198;27;20961;-76
2020/12/25 01:46:23;;;;;;;5.60;5.10;;;2.80;99.90;;;;;;5125644;27;20481;-75
2020/12/25 01:48:50;;;;;;;5.70;5.10;;;2.80;99.90;;;;;;5125169;27;20475;-75
2020/12/25 01:51:19;;;;;;;6.13;5.53;;;2.70;99.90;;;;;;5130875;27;20983;-75
2020/12/25 01:53:48;;;;;;;5.90;4.97;;;2.60;99.90;;;;;;5126234;27;20576;-75
2020/12/25 01:56:17;;;;;;;5.93;5.30;;;2.60;99.90;;;;;;5122146;27;20450;-75
2020/12/25 01:58:45;;;;;;;7.57;5.93;;;2.60;99.90;;;;;;5127228;27;20452;-76
2020/12/25 02:01:13;;;;;;;7.67;6.17;;;2.50;99.90;;;;;;5126864;27;21375;-75
2020/12/25 02:03:41;;;;;;;6.23;5.33;;;2.50;99.90;;;;;;5128590;27;20460;-75
2020/12/25 02:06:09;;;;;;;6.70;5.40;;;2.50;99.90;;;;;;5127395;27;20482;-77
2020/12/25 02:08:36;;;;;;;6.40;4.77;;;2.40;99.90;;;;;;5130255;27;20477;-76
2020/12/25 02:11:02;;;;;;;6.53;5.90;;;2.40;99.90;;;;;;5125375;27;20470;-76
2020/12/25 02:13:30;;;;;;;7.77;6.00;;;2.30;99.90;;;;;;5123251;27;20463;-76
2020/12/25 02:15:57;;;;;;;6.80;5.40;;;2.30;99.90;;;;;;5124913;27;20452;-76
2020/12/25 02:18:23;;;;;;;8.27;5.73;;;2.30;99.90;;;;;;5125545;27;20504;-76
2020/12/25 02:20:50;;;;;;;6.53;5.17;;;2.30;99.90;;;;;;5126411;27;20453;-75
2020/12/25 02:23:17;;;;;;;9.03;6.33;;;2.30;99.90;;;;;;5124568;27;20550;-76
2020/12/25 02:25:44;;;;;;;8.90;6.80;;;2.20;99.90;;;;;;5123668;27;20522;-76
2020/12/25 02:28:12;;;;;;;9.27;7.00;;;2.30;99.90;;;;;;5131903;27;21059;-76
2020/12/25 02:30:38;;;;;;;9.63;6.30;;;2.30;99.90;;;;;;5127575;27;20522;-76
2020/12/25 02:33:05;;;;;;;14.60;7.03;;;2.20;99.90;;;;;;5126588;27;20449;-76
2020/12/25 02:35:31;;;;;;;6.97;5.50;;;2.20;99.90;;;;;;5127769;27;20996;-75
2020/12/25 02:37:59;;;;;;;11.23;7.43;;;2.10;99.90;;;;;;5132227;27;20458;-75
2020/12/25 02:40:28;;;;;;;10.60;7.40;;;2.10;99.90;;;;;;5128443;27;20465;-76
2020/12/25 02:42:55;;;;;;;7.73;5.90;;;2.00;99.90;;;;;;5127968;27;20893;-75
2020/12/25 02:45:22;;;;;;;9.00;6.73;;;2.00;99.90;;;;;;5128994;27;20514;-75
2020/12/25 02:47:49;;;;;;;9.30;7.33;;;2.00;99.90;;;;;;5125731;27;20475;-75
2020/12/25 02:50:16;;;;;;;10.33;6.70;;;2.10;99.90;;;;;;5125881;27;20541;-75
2020/12/25 02:52:42;;;;;;;13.13;7.13;;;2.00;99.90;;;;;;5125758;27;20460;-75
2020/12/25 02:55:08;;;;;;;10.50;6.60;;;1.90;99.90;;;;;;5122293;27;20524;-75
2020/12/25 02:57:36;;;;;;;9.43;6.90;;;1.90;99.90;;;;;;5124991;27;20498;-75
2020/12/25 03:00:07;;;;;;;9.70;6.40;;;1.90;99.90;;;;;;5129075;27;20845;-75
2020/12/25 03:02:33;;;;;;;11.13;6.63;;;1.80;99.90;;;;;;5124696;27;20451;-75
2020/12/25 03:05:00;;;;;;;10.00;7.50;;;1.90;99.90;;;;;;5128260;27;20444;-75
2020/12/25 03:07:27;;;;;;;10.27;6.70;;;1.90;99.90;;;;;;5125304;27;21238;-75
2020/12/25 03:09:54;;;;;;;10.90;6.70;;;1.80;99.90;;;;;;5126563;27;20454;-76
2020/12/25 03:12:20;;;;;;;13.00;7.73;;;1.80;99.90;;;;;;5121495;27;21137;-74
2020/12/25 03:14:53;;;;;;;11.50;7.80;;;1.80;99.90;;;;;;5123651;27;20961;-75
2020/12/25 03:17:19;;;;;;;10.53;7.60;;;1.70;99.90;;;;;;5124189;27;21076;-74
2020/12/25 03:19:47;;;;;;;10.20;7.00;;;1.70;99.90;;;;;;5127447;27;20987;-74
2020/12/25 03:22:13;;;;;;;14.70;7.80;;;1.70;99.90;;;;;;5125428;27;20542;-76
2020/12/25 03:24:40;;;;;;;11.30;7.57;;;1.70;99.90;;;;;;5121445;27;20508;-74
2020/12/25 03:27:06;;;;;;;14.03;8.10;;;1.70;99.90;;;;;;5124827;27;20439;-75
2020/12/25 03:29:32;;;;;;;11.90;7.00;;;1.70;99.90;;;;;;5126063;27;20568;-74
2020/12/25 03:32:00;;;;;;;9.87;7.00;;;1.70;99.90;;;;;;5126021;27;20656;-74
2020/12/25 03:34:30;;;;;;;10.50;6.97;;;1.60;99.90;;;;;;5123521;27;20547;-74
2020/12/25 03:36:56;;;;;;;14.10;7.73;;;1.60;99.90;;;;;;5126425;27;20478;-74
2020/12/25 03:39:23;;;;;;;10.43;7.43;;;1.60;99.90;;;;;;5123729;27;20482;-75
2020/12/25 03:41:52;;;;;;;11.83;8.00;;;1.70;99.90;;;;;;5126355;27;20470;-75
2020/12/25 03:44:21;;;;;;;11.10;7.90;;;1.80;99.90;;;;;;5125426;27;20469;-75
2020/12/25 03:46:47;;;;;;;9.57;7.00;;;1.80;99.90;;;;;;5126282;27;20457;-74
2020/12/25 03:49:14;;;;;;;10.90;7.73;;;1.90;99.90;;;;;;5124787;27;20457;-75
2020/12/25 03:51:43;;;;;;;10.87;7.63;;;1.80;99.90;;;;;;5127688;27;20450;-74
2020/12/25 03:54:09;;;;;;;11.00;7.40;;;1.90;99.90;;;;;;5131151;27;20467;-74
2020/12/25 03:56:36;;;;;;;11.83;7.80;;;1.90;99.90;;;;;;5123798;27;21491;-74
2020/12/25 03:59:05;;;;;;;10.93;7.50;;;1.80;99.90;;;;;;5128328;27;20454;-74
2020/12/25 04:01:31;;;;;;;9.77;7.70;;;1.80;99.90;;;;;;5125256;27;20481;-74
2020/12/25 04:03:57;;;;;;;11.80;8.03;;;1.80;99.90;;;;;;5131115;27;20446;-75
2020/12/25 04:06:25;;;;;;;12.40;7.50;;;1.70;99.90;;;;;;5128236;27;20459;-75
2020/12/25 04:08:51;;;;;;;10.17;7.90;;;1.70;99.90;;;;;;5130881;27;20449;-75
2020/12/25 04:11:17;;;;;;;12.20;8.57;;;1.70;99.90;;;;;;5129692;27;20442;-75
2020/12/25 04:13:47;;;;;;;11.23;7.67;;;1.60;99.90;;;;;;5132538;27;20801;-75
2020/12/25 04:16:13;;;;;;;19.20;9.03;;;1.60;99.90;;;;;;5127455;27;20450;-75
2020/12/25 04:18:39;;;;;;;12.00;8.80;;;1.60;99.90;;;;;;5130542;27;20557;-75
2020/12/25 04:21:06;;;;;;;11.60;7.60;;;1.60;99.90;;;;;;5125433;27;20461;-75
2020/12/25 04:23:33;;;;;;;11.70;8.33;;;1.50;99.90;;;;;;5130482;27;20508;-75
2020/12/25 04:25:59;;;;;;;12.70;8.10;;;1.60;99.90;;;;;;5130602;27;20475;-75
2020/12/25 04:28:26;;;;;;;10.33;7.50;;;1.60;99.90;;;;;;5127890;27;20559;-76
2020/12/25 04:30:52;;;;;;;13.53;8.33;;;1.60;99.90;;;;;;5124482;27;20445;-76
2020/12/25 04:33:18;;;;;;;13.77;9.10;;;1.60;99.90;;;;;;5127952;27;20533;-75
2020/12/25 04:35:45;;;;;;;12.90;8.57;;;1.70;99.90;;;;;;5128384;27;20466;-75
2020/12/25 04:38:11;;;;;;;13.53;7.30;;;1.70;99.90;;;;;;5129728;27;20557;-75
2020/12/25 04:40:38;;;;;;;9.87;7.73;;;1.70;99.90;;;;;;5125681;27;20447;-75
2020/12/25 04:43:05;;;;;;;12.93;7.73;;;1.70;99.90;;;;;;5128157;27;20478;-75
2020/12/25 04:45:32;;;;;;;11.50;8.07;;;1.70;99.90;;;;;;5130294;27;20489;-75
2020/12/25 04:48:00;;;;;;;15.00;8.80;;;1.80;99.90;;;;;;5131343;27;20547;-76
2020/12/25 04:50:30;;;;;;;11.87;7.90;;;1.80;99.90;;;;;;5133342;27;20507;-76
2020/12/25 04:53:05;;;;;;;10.67;7.40;;;1.80;99.90;;;;;;5127015;27;20554;-76
2020/12/25 04:55:33;;;;;;;12.37;8.93;;;1.80;99.90;;;;;;5128802;27;20533;-75
2020/12/25 04:58:00;;;;;;;9.93;7.90;;;1.70;99.90;;;;;;5127474;27;20468;-75
2020/12/25 05:00:27;;;;;;;14.17;8.50;;;1.80;99.90;;;;;;5130191;27;20997;-74
2020/12/25 05:02:54;;;;;;;12.20;8.87;;;1.90;99.90;;;;;;5129237;27;20473;-74
2020/12/25 05:05:28;;;;;;;11.30;8.60;;;1.90;99.90;;;;;;5133654;27;20510;-74
2020/12/25 05:07:56;;;;;;;14.67;10.13;;;1.90;99.90;;;;;;5130268;27;20935;-74
2020/12/25 05:10:23;;;;;;;15.70;8.90;;;1.90;99.90;;;;;;5129673;27;20454;-75
2020/12/25 05:12:49;;;;;;;18.60;10.00;;;2.00;99.90;;;;;;5127803;27;20533;-75
2020/12/25 05:15:17;;;;;;;14.20;8.87;;;2.00;99.90;;;;;;5130668;27;20451;-76
2020/12/25 05:17:44;;;;;;;15.60;10.00;;;2.00;99.90;;;;;;5125437;27;20947;-76
2020/12/25 05:20:11;;;;;;;16.00;9.77;;;2.00;99.90;;;;;;5125687;27;20449;-75
2020/12/25 05:22:41;;;;;;;15.57;9.40;;;2.00;99.90;;;;;;5128616;27;20900;-75
2020/12/25 05:25:08;;;;;;;14.70;10.40;;;2.10;99.90;;;;;;5129636;27;20463;-75
2020/12/25 05:27:35;;;;;;;14.37;9.53;;;2.10;99.90;;;;;;5130382;27;20458;-75
2020/12/25 05:30:04;;;;;;;14.77;9.90;;;2.10;99.90;;;;;;5128913;27;20450;-74
2020/12/25 05:32:34;;;;;;;13.93;9.43;;;2.10;99.90;;;;;;5132941;27;20832;-75
2020/12/25 05:35:01;;;;;;;12.63;9.50;;;2.20;99.90;;;;;;5126249;27;20528;-75
2020/12/25 05:37:34;;;;;;;20.20;10.33;;;2.20;99.90;;;;;;5128571;27;20455;-75
2020/12/25 05:40:06;;;;;;;16.63;9.80;;;2.30;99.90;;;;;;5129236;27;20444;-75
2020/12/25 05:42:45;;;;;;;15.73;9.60;;;2.30;99.90;;;;;;5127179;27;20530;-73
2020/12/25 05:45:15;;;;;;;17.57;10.13;;;2.30;99.90;;;;;;5128193;27;20501;-76
2020/12/25 05:47:42;;;;;;;15.53;9.10;;;2.40;99.90;;;;;;5132005;27;20482;-76
2020/12/25 05:50:11;;;;;;;14.97;10.00;;;2.30;99.90;;;;;;5127936;27;20446;-75
2020/12/25 05:52:41;;;;;;;18.63;12.00;;;2.40;99.90;;;;;;5127917;27;20793;-75
2020/12/25 05:55:14;;;;;;;16.93;11.33;;;2.40;99.90;;;;;;5128211;27;20450;-76
2020/12/25 05:57:47;;;;;;;18.47;11.20;;;2.40;99.90;;;;;;5128827;27;20627;-76
2020/12/25 06:00:15;;;;;;;13.40;9.63;;;2.40;99.90;;;;;;5126706;27;20462;-76
2020/12/25 06:02:49;;;;;;;14.87;9.40;;;2.50;99.90;;;;;;5127868;27;20475;-76
2020/12/25 06:05:17;;;;;;;14.50;10.27;;;2.50;99.90;;;;;;5127832;27;20452;-76
2020/12/25 06:07:48;;;;;;;14.57;10.47;;;2.50;99.90;;;;;;5128666;27;20557;-75
2020/12/25 06:10:17;;;;;;;15.80;10.20;;;2.50;99.90;;;;;;5126092;27;21057;-75
2020/12/25 06:12:43;;;;;;;19.03;11.00;;;2.40;99.90;;;;;;5128225;27;20490;-76
2020/12/25 06:15:11;;;;;;;19.70;10.37;;;2.40;99.90;;;;;;5128325;27;20539;-78
2020/12/25 06:17:46;;;;;;;15.40;10.17;;;2.40;99.90;;;;;;5127851;27;21008;-76
2020/12/25 06:20:16;;;;;;;15.17;10.87;;;2.50;99.90;;;;;;5127048;27;20446;-75
2020/12/25 06:22:44;;;;;;;15.77;10.43;;;2.50;99.90;;;;;;5126663;27;21070;-75
2020/12/25 06:25:14;;;;;;;15.90;10.77;;;2.50;99.90;;;;;;5127747;27;20466;-75
2020/12/25 06:27:49;;;;;;;23.20;10.63;;;2.50;99.90;;;;;;5129759;27;20530;-77
2020/12/25 06:30:24;;;;;;;16.13;10.50;;;2.50;99.90;;;;;;5131956;27;20460;-75
2020/12/25 06:32:53;;;;;;;15.60;10.57;;;2.50;99.90;;;;;;5126894;27;20499;-75
2020/12/25 06:35:28;;;;;;;12.47;10.27;;;2.60;99.90;;;;;;5128609;27;20466;-75
2020/12/25 06:37:55;;;;;;;14.37;9.87;;;2.50;99.90;;;;;;5125983;27;20466;-75
2020/12/25 06:40:24;;;;;;;14.80;10.10;;;2.50;99.90;;;;;;5130594;27;20530;-75
2020/12/25 06:42:55;;;;;;;16.13;9.97;;;2.50;99.90;;;;;;5122788;27;20453;-75
2020/12/25 06:45:30;;;;;;;13.90;8.93;;;2.60;99.90;;;;;;5127904;27;20450;-75
2020/12/25 06:48:15;;;;;;;14.40;10.10;;;2.60;99.90;;;;;;5124391;27;20822;-75
2020/12/25 06:50:50;;;;;;;14.33;10.40;;;2.50;99.90;;;;;;5128983;27;20452;-75
2020/12/25 06:53:34;;;;;;;18.60;10.17;;;2.50;99.90;;;;;;5125823;27;21025;-76
2020/12/25 06:56:15;;;;;;;15.87;10.00;;;2.50;99.90;;;;;;5124738;27;20450;-75
2020/12/25 06:58:44;;;;;;;18.20;10.90;;;2.40;99.90;;;;;;5128611;27;21075;-75
2020/12/25 07:01:11;;;;;;;14.67;8.87;;;2.40;99.90;;;;;;5128441;27;20449;-74
2020/12/25 07:03:39;;;;;;;13.53;9.20;;;2.50;99.90;;;;;;5125102;27;20487;-75
2020/12/25 07:06:09;;;;;;;12.00;9.43;;;2.50;99.90;;;;;;5132188;27;20499;-75
2020/12/25 07:08:45;;;;;;;15.30;9.50;;;2.50;99.90;;;;;;5132787;27;20451;-76
2020/12/25 07:11:12;;;;;;;11.83;9.20;;;2.50;99.90;;;;;;5126891;27;20441;-75
2020/12/25 07:13:40;;;;;;;16.40;9.77;;;2.50;99.90;;;;;;5123941;27;20565;-75
2020/12/25 07:16:07;;;;;;;14.70;9.20;;;2.50;99.90;;;;;;5128958;27;20446;-75
2020/12/25 07:18:35;;;;;;;13.27;9.93;;;2.50;99.90;;;;;;5123271;27;20541;-75
2020/12/25 07:21:05;;;;;;;14.43;10.30;;;2.50;99.90;;;;;;5128444;27;20456;-76
2020/12/25 07:23:32;;;;;;;15.80;9.43;;;2.60;99.90;;;;;;5125915;27;21005;-77
2020/12/25 07:26:00;;;;;;;11.53;9.40;;;2.60;99.90;;;;;;5125035;27;21029;-78
2020/12/25 07:28:27;;;;;;;15.07;9.83;;;2.70;99.90;;;;;;5122507;27;20503;-77
2020/12/25 07:30:55;;;;;;;15.60;10.13;;;2.70;99.90;;;;;;5123168;27;20434;-77
2020/12/25 07:33:21;;;;;;;15.17;10.43;;;2.70;99.90;;;;;;5120762;27;20531;-76
2020/12/25 07:35:50;;;;;;;17.37;11.30;;;2.70;99.90;;;;;;5126303;27;20507;-75
2020/12/25 07:38:21;;;;;;;19.37;12.20;;;2.70;99.90;;;;;;5126922;27;20573;-77
2020/12/25 07:40:50;;;;;;;16.50;10.90;;;2.60;99.90;;;;;;5137329;27;20866;-76
2020/12/25 07:43:17;;;;;;;14.33;10.47;;;2.60;99.90;;;;;;5126133;27;20937;-76
2020/12/25 07:45:46;;;;;;;16.57;11.00;;;2.60;99.90;;;;;;5134048;27;20453;-75
2020/12/25 07:48:13;;;;;;;13.03;10.17;;;2.50;99.90;;;;;;5131857;27;20446;-76
2020/12/25 07:50:43;;;;;;;16.07;10.50;;;2.60;99.90;;;;;;5128341;27;20451;-76
2020/12/25 07:53:11;;;;;;;14.60;10.70;;;2.60;99.90;;;;;;5129244;27;20470;-75
2020/12/25 07:55:39;;;;;;;15.60;10.33;;;2.60;99.90;;;;;;5127838;27;20503;-75
2020/12/25 07:58:05;;;;;;;13.17;10.60;;;2.60;99.90;;;;;;5130364;27;20461;-76
2020/12/25 08:00:33;;;;;;;15.77;10.63;;;2.60;99.90;;;;;;5128089;27;20457;-77
2020/12/25 08:02:59;;;;;;;15.67;12.20;;;2.60;99.90;;;;;;5133757;27;20596;-75
2020/12/25 08:05:28;;;;;;;16.67;11.43;;;2.60;99.90;;;;;;5128692;27;20490;-75
2020/12/25 08:07:57;;;;;;;14.90;10.50;;;2.70;99.90;;;;;;5130339;27;20445;-76
2020/12/25 08:10:25;;;;;;;21.10;11.73;;;2.70;99.90;;;;;;5130057;27;20439;-76
2020/12/25 08:12:56;;;;;;;16.43;12.23;;;2.70;99.90;;;;;;5130042;27;20527;-76
2020/12/25 08:15:24;;;;;;;21.40;12.43;;;2.60;99.90;;;;;;5128350;27;20453;-77
2020/12/25 08:17:55;;;;;;;20.13;11.53;;;2.70;99.90;;;;;;5135875;27;20463;-75
2020/12/25 08:20:24;;;;;;;17.70;11.73;;;2.70;99.90;;;;;;5130040;27;20543;-76
2020/12/25 08:22:57;;;;;;;19.00;11.73;;;2.80;99.90;;;;;;5130663;27;20456;-76
2020/12/25 08:25:23;;;;;;;18.50;10.43;;;2.70;99.90;;;;;;5124967;27;20494;-76
2020/12/25 08:27:49;;;;;;;17.40;10.80;;;2.70;99.90;;;;;;5132001;27;20440;-76
2020/12/25 08:30:19;;;;;;;15.27;11.00;;;2.70;99.90;;;;;;5136591;27;20458;-77
2020/12/25 08:32:46;;;;;;;16.00;10.30;;;2.60;99.90;;;;;;5138286;27;20471;-77
2020/12/25 08:35:17;;;;;;;13.67;10.37;;;2.70;99.90;;;;;;5135925;27;20465;-76
2020/12/25 08:37:58;;;;;;;16.27;10.90;;;2.70;99.90;;;;;;5130002;27;20513;-78
2020/12/25 08:40:25;;;;;;;15.00;10.83;;;2.70;99.90;;;;;;5131080;27;20442;-75
2020/12/25 08:42:52;;;;;;;15.07;10.80;;;2.80;99.90;;;;;;5135360;27;20447;-77
2020/12/25 08:45:21;;;;;;;14.00;9.97;;;2.70;99.90;;;;;;5138353;27;20447;-76
2020/12/25 08:48:04;;;;;;;17.90;11.60;;;2.80;99.90;;;;;;5125689;27;20571;-77
2020/12/25 08:50:31;;;;;;;17.03;10.97;;;2.80;99.90;;;;;;5129942;27;20453;-76
2020/12/25 08:53:17;;;;;;;16.90;10.67;;;2.80;99.90;;;;;;5130382;27;20975;-75
2020/12/25 08:55:44;;;;;;;14.23;10.13;;;2.80;99.90;;;;;;5127029;27;20440;-76
2020/12/25 08:58:11;;;;;;;16.90;10.50;;;2.90;99.90;;;;;;5128091;27;20549;-76
2020/12/25 09:00:40;;;;;;;13.97;10.67;;;2.90;99.90;;;;;;5126681;27;20518;-76
2020/12/25 09:03:09;;;;;;;17.77;10.63;;;2.80;99.90;;;;;;5126234;27;20446;-76
2020/12/25 09:05:36;;;;;;;16.83;10.80;;;2.80;99.90;;;;;;5128462;27;20435;-76
2020/12/25 09:08:06;;;;;;;15.40;10.40;;;2.90;99.90;;;;;;5125061;27;20455;-76
2020/12/25 09:10:32;;;;;;;13.93;10.00;;;2.80;99.90;;;;;;5125510;27;20909;-77
2020/12/25 09:12:59;;;;;;;15.70;10.10;;;2.80;99.90;;;;;;5125438;27;20442;-79
2020/12/25 09:15:25;;;;;;;12.87;9.03;;;2.90;99.90;;;;;;5125699;27;21228;-76
2020/12/25 09:17:53;;;;;;;15.93;10.63;;;3.00;99.90;;;;;;5126588;27;20803;-76
2020/12/25 09:20:19;;;;;;;13.00;10.10;;;3.00;99.90;;;;;;5127774;27;20475;-77
2020/12/25 09:22:45;;;;;;;12.90;10.40;;;3.00;99.90;;;;;;5126898;27;20964;-78
2020/12/25 09:25:12;;;;;;;11.90;9.00;;;3.10;99.90;;;;;;5124031;27;20474;-77
2020/12/25 09:27:38;;;;;;;14.73;10.50;;;3.10;99.90;;;;;;5130275;27;20460;-77
2020/12/25 09:30:05;;;;;;;12.97;10.17;;;3.10;99.90;;;;;;5134639;27;20847;-76
2020/12/25 09:32:31;;;;;;;11.00;8.80;;;3.20;99.90;;;;;;5126444;27;21141;-76
2020/12/25 09:34:58;;;;;;;12.60;9.20;;;3.20;99.90;;;;;;5130770;27;20477;-76
2020/12/25 09:37:25;;;;;;;12.47;9.50;;;3.20;97.90;;;;;;5127836;27;22780;-76
2020/12/25 09:39:51;;;;;;;11.50;9.13;;;3.30;98.60;;;;;;5125122;27;20454;-76
2020/12/25 09:42:18;;;;;;;11.10;8.67;;;3.20;96.30;;;;;;5135208;27;20451;-76
2020/12/25 09:44:44;;;;;;;14.30;9.57;;;3.00;99.90;;;;;;5124301;27;21370;-76
2020/12/25 09:47:10;;;;;;;10.80;8.03;;;3.10;99.00;;;;;;5120589;27;20512;-77
2020/12/25 09:49:39;;;;;;;8.60;7.60;;;3.10;96.80;;;;;;5121025;27;20465;-76
2020/12/25 09:52:06;;;;;;;10.53;8.00;;;3.00;98.00;;;;;;5122510;27;20448;-77
2020/12/25 09:54:32;;;;;;;12.70;8.23;;;3.20;99.50;;;;;;5118866;27;20456;-76
2020/12/25 09:56:59;;;;;;;10.93;8.23;;;3.10;96.30;;;;;;5123266;27;20475;-76
2020/12/25 09:59:25;;;;;;;10.27;7.47;;;3.20;96.70;;;;;;5120493;27;20495;-75
2020/12/25 10:01:52;;;;;;;10.60;8.10;;;3.20;96.00;;;;;;5125064;27;21016;-77
2020/12/25 10:04:18;;;;;;;7.50;6.20;;;3.10;95.40;;;;;;5122139;27;20448;-77
2020/12/25 10:06:45;;;;;;;11.73;7.60;;;3.20;94.90;;;;;;5120730;27;21216;-76
2020/12/25 10:09:12;;;;;;;7.60;6.53;;;3.00;97.40;;;;;;5124114;27;20889;-76
2020/12/25 10:11:39;;;;;;;8.00;6.50;;;2.90;93.70;;;;;;5123009;27;20475;-76
2020/12/25 10:14:05;;;;;;;10.83;7.47;;;3.10;95.60;;;;;;5121890;27;20451;-76
2020/12/25 10:16:35;;;;;;;7.73;6.90;;;3.20;94.10;;;;;;5121215;27;21133;-76
2020/12/25 10:19:01;;;;;;;7.00;6.07;;;3.40;97.10;;;;;;5123225;27;20478;-76
2020/12/25 10:21:27;;;;;;;6.37;5.70;;;3.60;92.60;;;;;;5121678;27;20456;-76
2020/12/25 10:23:54;;;;;;;8.03;5.83;;;3.70;90.60;;;;;;5124560;27;20459;-77
2020/12/25 10:26:21;;;;;;;7.50;5.80;;;3.70;91.40;;;;;;5121507;27;20454;-77
2020/12/25 10:28:52;;;;;;;6.70;6.00;;;3.60;91.20;;;;;;5125061;27;20465;-76
2020/12/25 10:31:18;;;;;;;6.27;4.93;;;3.50;91.40;;;;;;5124555;27;20456;-75
2020/12/25 10:33:45;;;;;;;5.90;5.30;;;3.40;90.30;;;;;;5124759;27;21084;-77
2020/12/25 10:36:11;;;;;;;6.97;5.77;;;3.70;93.00;;;;;;5127810;27;20448;-79
2020/12/25 10:38:38;;;;;;;7.23;5.60;;;3.80;90.80;;;;;;5131884;27;20476;-77
2020/12/25 10:41:08;;;;;;;5.80;5.00;;;3.70;89.70;;;;;;5123091;27;20451;-76
2020/12/25 10:43:36;;;;;;;5.77;4.90;;;3.70;90.10;;;;;;5129215;27;20459;-76
2020/12/25 10:46:04;;;;;;;4.63;4.23;;;3.70;88.50;;;;;;5123966;27;21770;-76
2020/12/25 10:48:32;;;;;;;7.70;5.73;;;3.70;87.30;;;;;;5132182;27;20840;-77
2020/12/25 10:50:59;;;;;;;5.13;4.63;;;3.80;90.20;;;;;;5127068;27;20447;-77
2020/12/25 10:53:25;;;;;;;6.10;4.60;;;3.80;86.60;;;;;;5123054;27;20459;-77
2020/12/25 10:55:52;;;;;;;4.53;4.13;;;3.90;90.00;;;;;;5128273;27;20460;-77
2020/12/25 10:58:18;;;;;;;5.53;3.83;;;3.70;87.10;;;;;;5126198;27;20472;-77
2020/12/25 11:00:47;;;;;;;3.73;3.43;;;3.70;87.80;;;;;;5133588;27;20958;-76
2020/12/25 11:03:14;;;;;;;4.27;3.87;;;3.60;84.80;;;;;;5124593;27;20452;-76
2020/12/25 11:05:40;;;;;;;3.60;3.30;;;3.50;86.70;;;;;;5127832;27;20452;-76
2020/12/25 11:08:06;;;;;;;4.60;4.20;;;3.40;89.10;;;;;;5124247;27;20531;-77
2020/12/25 11:10:33;;;;;;;4.27;3.57;;;3.40;90.40;;;;;;5125314;27;20827;-77
2020/12/25 11:13:00;;;;;;;3.43;3.13;;;3.00;90.70;;;;;;5124455;27;20461;-77
2020/12/25 11:15:26;;;;;;;4.30;3.90;;;2.80;91.90;;;;;;5126667;27;20479;-76
2020/12/25 11:17:56;;;;;;;5.00;4.40;;;2.90;92.60;;;;;;5121365;27;20451;-77
2020/12/25 11:20:22;;;;;;;4.37;3.97;;;2.90;90.90;;;;;;5128249;27;20546;-76
2020/12/25 11:22:49;;;;;;;6.30;3.93;;;2.90;91.50;;;;;;5125782;27;20455;-77
2020/12/25 11:25:15;;;;;;;4.63;4.03;;;2.80;91.70;;;;;;5128170;27;20464;-77
2020/12/25 11:27:46;;;;;;;4.97;4.50;;;3.00;91.60;;;;;;5121100;27;21257;-76
2020/12/25 11:30:15;;;;;;;5.77;5.00;;;2.80;91.90;;;;;;5127873;27;20451;-75
2020/12/25 11:32:42;;;;;;;6.17;5.17;;;2.80;92.30;;;;;;5117999;27;20471;-77
2020/12/25 11:35:11;;;;;;;5.60;4.30;;;2.70;93.00;;;;;;5128566;27;20475;-77
2020/12/25 11:37:38;;;;;;;5.50;3.90;;;2.70;92.20;;;;;;5141991;27;20468;-75
2020/12/25 11:40:05;;;;;;;5.00;3.53;;;2.80;90.50;;;;;;5121259;27;20458;-75
2020/12/25 11:42:31;;;;;;;3.83;3.50;;;2.70;90.40;;;;;;5124327;27;20496;-76
2020/12/25 11:44:58;;;;;;;3.50;2.80;;;2.80;87.80;;;;;;5123828;27;20460;-77
2020/12/25 11:47:24;;;;;;;6.67;3.10;;;2.80;88.10;;;;;;5126351;27;20541;-76
2020/12/25 11:49:53;;;;;;;3.27;2.97;;;2.70;88.10;;;;;;5126170;27;20453;-75
2020/12/25 11:52:20;;;;;;;4.53;3.20;;;2.60;89.00;;;;;;5122284;27;20457;-77
2020/12/25 11:54:46;;;;;;;2.90;2.70;;;2.70;89.10;;;;;;5123792;27;20441;-76
2020/12/25 11:57:13;;;;;;;3.43;2.90;;;2.70;87.30;;;;;;5128053;27;20443;-75
2020/12/25 11:59:39;;;;;;;4.10;3.50;;;2.80;87.60;;;;;;5120539;27;20587;-77
2020/12/25 12:02:06;;;;;;;4.23;3.70;;;3.00;89.60;;;;;;5123728;27;20939;-77
2020/12/25 12:04:33;;;;;;;4.20;3.77;;;3.10;87.80;;;;;;5123615;27;20492;-76
2020/12/25 12:06:59;;;;;;;5.13;3.90;;;3.20;90.10;;;;;;5125610;27;20465;-77
2020/12/25 12:09:27;;;;;;;5.20;4.70;;;3.30;89.50;;;;;;5126236;27;20456;-75
2020/12/25 12:11:53;;;;;;;8.00;5.20;;;3.40;87.80;;;;;;5124068;27;20471;-76
2020/12/25 12:14:21;;;;;;;4.70;4.30;;;3.50;87.40;;;;;;5127519;27;20447;-76
2020/12/25 12:16:47;;;;;;;5.23;4.73;;;3.50;89.30;;;;;;5135362;27;20588;-76
2020/12/25 12:19:14;;;;;;;5.13;4.63;;;3.50;87.60;;;;;;5138451;27;20494;-76
2020/12/25 12:21:40;;;;;;;5.43;4.93;;;3.50;86.60;;;;;;5133843;27;20478;-76
2020/12/25 12:24:07;;;;;;;6.20;5.60;;;3.50;88.30;;;;;;5131332;27;20456;-75
2020/12/25 12:26:34;;;;;;;9.30;5.30;;;3.30;85.80;;;;;;5127880;27;21012;-76
2020/12/25 12:29:00;;;;;;;9.20;5.07;;;3.40;87.30;;;;;;5134030;27;20439;-77
2020/12/25 12:31:29;;;;;;;6.53;5.43;;;3.30;86.20;;;;;;5135890;27;20457;-75
2020/12/25 12:33:55;;;;;;;7.17;4.83;;;3.20;86.20;;;;;;5132565;27;20467;-75
2020/12/25 12:36:25;;;;;;;8.10;5.17;;;3.10;85.60;;;;;;5128836;27;22587;-76
2020/12/25 12:38:51;;;;;;;5.87;4.70;;;3.10;87.90;;;;;;5130969;27;21395;-77
2020/12/25 12:41:18;;;;;;;8.13;4.40;;;3.10;84.00;;;;;;5127783;27;20472;-75
2020/12/25 12:43:45;;;;;;;4.90;4.43;;;3.10;83.40;;;;;;5128818;27;20809;-77
2020/12/25 12:46:11;;;;;;;4.67;3.70;;;2.90;83.10;;;;;;5124502;27;20546;-77
2020/12/25 12:48:38;;;;;;;3.37;3.07;;;2.90;83.90;;;;;;5129170;27;21128;-76
2020/12/25 12:51:04;;;;;;;3.70;3.40;;;2.80;85.00;;;;;;5135809;27;20566;-76